sensor_id;sensor_type;location;lat;lon;timestamp;noise_LAeq;noise_LA_min;noise_LA_max;noise_LA01;noise_LA95
66274;Laerm;58450;52.150;4.466;2023-07-16T00:00:37;41.19;36.46;51.12;;
66274;Laerm;58450;52.150;4.466;2023-07-16T00:03:05;42.15;35.66;52.88;;
66274;Laerm;58450;52.150;4.466;2023-07-16T00:05:36;41.68;37.17;52.31;;
66274;Laerm;58450;52.150;4.466;2023-07-16T00:08:04;43.29;37.29;61.92;;
66274;Laerm;58450;52.150;4.466;2023-07-16T00:10:35;44.60;38.94;60.83;;
66274;Laerm;58450;52.150;4.466;2023-07-16T00:13:03;44.63;38.75;51.57;;
66274;Laerm;58450;52.150;4.466;2023-07-16T00:15:31;43.95;38.19;53.77;;
66274;Laerm;58450;52.150;4.466;2023-07-16T00:17:58;47.85;39.00;64.41;;
66274;Laerm;58450;52.150;4.466;2023-07-16T00:20:26;50.88;39.43;73.18;;
66274;Laerm;58450;52.150;4.466;2023-07-16T00:22:55;44.07;37.92;61.54;;
66274;Laerm;58450;52.150;4.466;2023-07-16T00:25:23;46.34;38.95;62.74;;
66274;Laerm;58450;52.150;4.466;2023-07-16T00:27:51;46.15;39.32;62.21;;
66274;Laerm;58450;52.150;4.466;2023-07-16T00:30:18;46.35;39.05;61.34;;
66274;Laerm;58450;52.150;4.466;2023-07-16T00:32:46;49.77;40.38;68.05;;
66274;Laerm;58450;52.150;4.466;2023-07-16T00:35:14;45.70;39.80;62.22;;
66274;Laerm;58450;52.150;4.466;2023-07-16T00:37:41;46.21;39.40;57.78;;
66274;Laerm;58450;52.150;4.466;2023-07-16T00:40:11;46.92;39.57;66.73;;
66274;Laerm;58450;52.150;4.466;2023-07-16T00:42:39;46.10;39.16;65.54;;
66274;Laerm;58450;52.150;4.466;2023-07-16T00:45:12;51.16;39.76;77.14;;
66274;Laerm;58450;52.150;4.466;2023-07-16T00:47:42;47.08;40.00;68.69;;
66274;Laerm;58450;52.150;4.466;2023-07-16T00:50:11;50.13;39.82;65.63;;
66274;Laerm;58450;52.150;4.466;2023-07-16T00:52:40;46.40;39.87;62.39;;
66274;Laerm;58450;52.150;4.466;2023-07-16T00:55:11;51.65;40.84;74.14;;
66274;Laerm;58450;52.150;4.466;2023-07-16T00:57:38;47.07;40.18;58.29;;
66274;Laerm;58450;52.150;4.466;2023-07-16T01:00:08;44.03;39.36;57.48;;
66274;Laerm;58450;52.150;4.466;2023-07-16T01:02:37;45.89;38.74;58.79;;
66274;Laerm;58450;52.150;4.466;2023-07-16T01:05:05;45.25;38.15;54.56;;
66274;Laerm;58450;52.150;4.466;2023-07-16T01:07:35;45.13;39.24;58.54;;
66274;Laerm;58450;52.150;4.466;2023-07-16T01:10:04;46.24;39.41;62.28;;
66274;Laerm;58450;52.150;4.466;2023-07-16T01:12:36;47.78;39.34;63.64;;
66274;Laerm;58450;52.150;4.466;2023-07-16T01:15:05;50.22;42.51;66.64;;
66274;Laerm;58450;52.150;4.466;2023-07-16T01:17:33;50.38;41.33;67.90;;
66274;Laerm;58450;52.150;4.466;2023-07-16T01:20:01;47.52;39.20;66.37;;
66274;Laerm;58450;52.150;4.466;2023-07-16T01:23:16;45.40;38.89;58.56;;
66274;Laerm;58450;52.150;4.466;2023-07-16T01:26:06;46.84;40.08;63.73;;
66274;Laerm;58450;52.150;4.466;2023-07-16T01:31:25;48.39;40.18;68.97;;
66274;Laerm;58450;52.150;4.466;2023-07-16T01:33:54;49.85;42.80;61.22;;
66274;Laerm;58450;52.150;4.466;2023-07-16T01:36:25;48.25;39.50;65.88;;
66274;Laerm;58450;52.150;4.466;2023-07-16T01:38:55;47.35;40.64;65.33;;
66274;Laerm;58450;52.150;4.466;2023-07-16T01:41:22;48.43;39.84;69.52;;
66274;Laerm;58450;52.150;4.466;2023-07-16T01:43:51;49.74;39.50;66.89;;
66274;Laerm;58450;52.150;4.466;2023-07-16T01:46:18;55.10;43.11;83.97;;
66274;Laerm;58450;52.150;4.466;2023-07-16T01:48:48;48.47;42.05;64.81;;
66274;Laerm;58450;52.150;4.466;2023-07-16T01:51:15;48.67;42.49;62.08;;
66274;Laerm;58450;52.150;4.466;2023-07-16T01:53:43;54.67;42.63;77.14;;
66274;Laerm;58450;52.150;4.466;2023-07-16T01:56:11;53.55;41.37;71.45;;
66274;Laerm;58450;52.150;4.466;2023-07-16T01:58:38;50.35;43.71;63.65;;
66274;Laerm;58450;52.150;4.466;2023-07-16T02:01:06;55.00;42.58;82.97;;
66274;Laerm;58450;52.150;4.466;2023-07-16T02:03:32;51.78;42.10;76.51;;
66274;Laerm;58450;52.150;4.466;2023-07-16T02:06:01;45.04;40.10;52.30;;
66274;Laerm;58450;52.150;4.466;2023-07-16T02:08:29;49.50;42.60;64.28;;
66274;Laerm;58450;52.150;4.466;2023-07-16T02:10:57;49.65;42.55;70.79;;
66274;Laerm;58450;52.150;4.466;2023-07-16T02:13:27;50.14;43.21;63.25;;
66274;Laerm;58450;52.150;4.466;2023-07-16T02:15:54;52.17;44.25;69.24;;
66274;Laerm;58450;52.150;4.466;2023-07-16T02:18:22;51.06;41.69;72.84;;
66274;Laerm;58450;52.150;4.466;2023-07-16T02:20:49;53.07;43.30;67.50;;
66274;Laerm;58450;52.150;4.466;2023-07-16T02:23:18;51.49;42.64;72.84;;
66274;Laerm;58450;52.150;4.466;2023-07-16T02:25:46;47.80;43.10;63.25;;
66274;Laerm;58450;52.150;4.466;2023-07-16T02:28:13;50.22;42.29;67.13;;
66274;Laerm;58450;52.150;4.466;2023-07-16T02:30:41;48.33;40.77;64.58;;
66274;Laerm;58450;52.150;4.466;2023-07-16T02:33:08;53.12;41.41;67.78;;
66274;Laerm;58450;52.150;4.466;2023-07-16T02:35:36;53.94;42.78;66.21;;
66274;Laerm;58450;52.150;4.466;2023-07-16T02:38:04;54.55;48.41;67.54;;
66274;Laerm;58450;52.150;4.466;2023-07-16T02:40:33;56.94;45.63;72.80;;
66274;Laerm;58450;52.150;4.466;2023-07-16T02:43:00;52.35;42.78;70.48;;
66274;Laerm;58450;52.150;4.466;2023-07-16T02:45:28;53.54;45.34;72.29;;
66274;Laerm;58450;52.150;4.466;2023-07-16T02:47:55;47.59;42.36;65.23;;
66274;Laerm;58450;52.150;4.466;2023-07-16T02:50:23;53.11;44.07;67.52;;
66274;Laerm;58450;52.150;4.466;2023-07-16T02:52:50;51.26;43.05;69.09;;
66274;Laerm;58450;52.150;4.466;2023-07-16T02:55:18;49.13;41.31;73.44;;
66274;Laerm;58450;52.150;4.466;2023-07-16T02:57:47;51.19;42.90;67.87;;
66274;Laerm;58450;52.150;4.466;2023-07-16T03:00:15;51.64;42.59;69.29;;
66274;Laerm;58450;52.150;4.466;2023-07-16T03:02:43;50.58;44.18;67.24;;
66274;Laerm;58450;52.150;4.466;2023-07-16T03:05:10;49.58;43.64;65.36;;
66274;Laerm;58450;52.150;4.466;2023-07-16T03:07:38;52.85;41.06;73.79;;
66274;Laerm;58450;52.150;4.466;2023-07-16T03:10:06;51.13;42.90;68.28;;
66274;Laerm;58450;52.150;4.466;2023-07-16T03:12:34;51.02;42.96;68.30;;
66274;Laerm;58450;52.150;4.466;2023-07-16T03:15:04;54.82;43.18;76.22;;
66274;Laerm;58450;52.150;4.466;2023-07-16T03:17:32;50.74;43.06;64.50;;
66274;Laerm;58450;52.150;4.466;2023-07-16T03:19:59;50.33;42.06;67.77;;
66274;Laerm;58450;52.150;4.466;2023-07-16T03:22:27;49.82;42.78;66.39;;
66274;Laerm;58450;52.150;4.466;2023-07-16T03:24:55;57.19;42.99;80.12;;
66274;Laerm;58450;52.150;4.466;2023-07-16T03:27:22;52.59;43.42;69.05;;
66274;Laerm;58450;52.150;4.466;2023-07-16T03:29:50;51.28;42.58;74.29;;
66274;Laerm;58450;52.150;4.466;2023-07-16T03:32:19;54.82;46.18;67.19;;
66274;Laerm;58450;52.150;4.466;2023-07-16T03:34:47;52.14;42.96;68.03;;
66274;Laerm;58450;52.150;4.466;2023-07-16T03:37:14;51.96;42.39;70.16;;
66274;Laerm;58450;52.150;4.466;2023-07-16T03:39:42;48.93;41.34;66.36;;
66274;Laerm;58450;52.150;4.466;2023-07-16T03:42:09;52.48;44.08;70.93;;
66274;Laerm;58450;52.150;4.466;2023-07-16T03:44:37;58.17;40.93;80.03;;
66274;Laerm;58450;52.150;4.466;2023-07-16T03:47:05;49.46;41.48;72.63;;
66274;Laerm;58450;52.150;4.466;2023-07-16T03:49:34;49.97;40.95;67.78;;
66274;Laerm;58450;52.150;4.466;2023-07-16T03:52:01;47.34;40.33;65.10;;
66274;Laerm;58450;52.150;4.466;2023-07-16T03:54:29;44.91;39.68;56.95;;
66274;Laerm;58450;52.150;4.466;2023-07-16T03:56:56;43.74;37.48;53.82;;
66274;Laerm;58450;52.150;4.466;2023-07-16T03:59:24;45.74;39.82;59.84;;
66274;Laerm;58450;52.150;4.466;2023-07-16T04:01:52;50.44;41.39;70.15;;
66274;Laerm;58450;52.150;4.466;2023-07-16T04:04:19;48.11;40.65;65.69;;
66274;Laerm;58450;52.150;4.466;2023-07-16T04:06:48;51.55;40.61;71.82;;
66274;Laerm;58450;52.150;4.466;2023-07-16T04:09:16;53.62;41.83;78.89;;
66274;Laerm;58450;52.150;4.466;2023-07-16T04:11:43;52.84;43.64;72.75;;
66274;Laerm;58450;52.150;4.466;2023-07-16T04:14:11;48.57;41.08;64.80;;
66274;Laerm;58450;52.150;4.466;2023-07-16T04:16:39;48.50;41.27;64.73;;
66274;Laerm;58450;52.150;4.466;2023-07-16T04:19:07;48.20;42.41;59.27;;
66274;Laerm;58450;52.150;4.466;2023-07-16T04:21:35;47.97;42.31;60.47;;
66274;Laerm;58450;52.150;4.466;2023-07-16T04:24:05;52.69;42.30;76.72;;
66274;Laerm;58450;52.150;4.466;2023-07-16T04:26:33;53.87;44.53;72.24;;
66274;Laerm;58450;52.150;4.466;2023-07-16T04:29:01;49.48;43.26;67.01;;
66274;Laerm;58450;52.150;4.466;2023-07-16T04:31:28;50.33;43.51;61.52;;
66274;Laerm;58450;52.150;4.466;2023-07-16T04:33:56;51.13;45.14;63.84;;
66274;Laerm;58450;52.150;4.466;2023-07-16T04:36:23;54.10;46.08;77.98;;
66274;Laerm;58450;52.150;4.466;2023-07-16T04:38:51;54.21;44.52;73.52;;
66274;Laerm;58450;52.150;4.466;2023-07-16T04:41:20;52.44;45.60;67.07;;
66274;Laerm;58450;52.150;4.466;2023-07-16T04:43:48;59.63;47.31;78.00;;
66274;Laerm;58450;52.150;4.466;2023-07-16T04:46:16;55.64;45.26;76.74;;
66274;Laerm;58450;52.150;4.466;2023-07-16T04:48:43;54.37;46.22;70.27;;
66274;Laerm;58450;52.150;4.466;2023-07-16T04:51:11;53.10;46.30;74.82;;
66274;Laerm;58450;52.150;4.466;2023-07-16T04:53:39;52.36;44.69;77.56;;
66274;Laerm;58450;52.150;4.466;2023-07-16T04:56:11;56.35;46.05;84.09;;
66274;Laerm;58450;52.150;4.466;2023-07-16T04:58:41;50.00;44.23;61.89;;
66274;Laerm;58450;52.150;4.466;2023-07-16T05:01:09;51.29;44.51;73.99;;
66274;Laerm;58450;52.150;4.466;2023-07-16T05:03:37;50.85;43.50;66.66;;
66274;Laerm;58450;52.150;4.466;2023-07-16T05:06:05;51.19;43.16;73.71;;
66274;Laerm;58450;52.150;4.466;2023-07-16T05:08:32;51.26;42.81;68.73;;
66274;Laerm;58450;52.150;4.466;2023-07-16T05:11:01;56.37;45.41;77.00;;
66274;Laerm;58450;52.150;4.466;2023-07-16T05:13:29;56.91;47.25;79.87;;
66274;Laerm;58450;52.150;4.466;2023-07-16T05:15:58;57.31;46.91;75.16;;
66274;Laerm;58450;52.150;4.466;2023-07-16T05:18:26;50.71;43.70;62.00;;
66274;Laerm;58450;52.150;4.466;2023-07-16T05:20:53;48.71;43.88;59.13;;
66274;Laerm;58450;52.150;4.466;2023-07-16T05:23:21;54.48;46.28;69.38;;
66274;Laerm;58450;52.150;4.466;2023-07-16T05:25:50;56.13;47.34;73.05;;
66274;Laerm;58450;52.150;4.466;2023-07-16T05:28:18;55.54;46.76;70.76;;
66274;Laerm;58450;52.150;4.466;2023-07-16T05:30:46;53.70;44.35;77.65;;
66274;Laerm;58450;52.150;4.466;2023-07-16T05:33:15;54.67;45.63;71.92;;
66274;Laerm;58450;52.150;4.466;2023-07-16T05:35:43;54.88;44.50;78.82;;
66274;Laerm;58450;52.150;4.466;2023-07-16T05:38:15;55.42;46.01;72.36;;
66274;Laerm;58450;52.150;4.466;2023-07-16T05:40:43;52.12;42.24;68.18;;
66274;Laerm;58450;52.150;4.466;2023-07-16T05:43:11;55.76;43.95;74.49;;
66274;Laerm;58450;52.150;4.466;2023-07-16T05:45:39;54.05;45.36;66.78;;
66274;Laerm;58450;52.150;4.466;2023-07-16T05:48:07;56.73;46.04;82.73;;
66274;Laerm;58450;52.150;4.466;2023-07-16T05:50:36;51.26;45.48;68.27;;
66274;Laerm;58450;52.150;4.466;2023-07-16T05:53:04;52.61;45.48;64.91;;
66274;Laerm;58450;52.150;4.466;2023-07-16T05:55:31;53.51;43.98;69.60;;
66274;Laerm;58450;52.150;4.466;2023-07-16T05:57:59;50.70;44.17;69.21;;
66274;Laerm;58450;52.150;4.466;2023-07-16T06:00:26;53.75;44.18;72.46;;
66274;Laerm;58450;52.150;4.466;2023-07-16T06:02:54;52.78;45.37;74.68;;
66274;Laerm;58450;52.150;4.466;2023-07-16T06:05:22;56.37;43.92;77.20;;
66274;Laerm;58450;52.150;4.466;2023-07-16T06:07:52;52.68;43.94;68.83;;
66274;Laerm;58450;52.150;4.466;2023-07-16T06:10:19;50.30;41.71;63.72;;
66274;Laerm;58450;52.150;4.466;2023-07-16T06:12:47;54.56;45.64;67.12;;
66274;Laerm;58450;52.150;4.466;2023-07-16T06:15:14;53.49;45.14;70.90;;
66274;Laerm;58450;52.150;4.466;2023-07-16T06:17:42;51.92;43.17;72.67;;
66274;Laerm;58450;52.150;4.466;2023-07-16T06:20:10;56.90;47.59;77.36;;
66274;Laerm;58450;52.150;4.466;2023-07-16T06:22:38;54.17;47.39;70.87;;
66274;Laerm;58450;52.150;4.466;2023-07-16T06:25:08;55.75;48.02;71.70;;
66274;Laerm;58450;52.150;4.466;2023-07-16T06:27:37;60.04;45.74;85.72;;
66274;Laerm;58450;52.150;4.466;2023-07-16T06:30:07;59.14;46.22;79.02;;
66274;Laerm;58450;52.150;4.466;2023-07-16T06:32:34;56.35;47.01;73.12;;
66274;Laerm;58450;52.150;4.466;2023-07-16T06:35:02;61.69;50.34;87.72;;
66274;Laerm;58450;52.150;4.466;2023-07-16T06:37:30;64.63;50.56;84.10;;
66274;Laerm;58450;52.150;4.466;2023-07-16T06:39:57;59.50;50.43;73.50;;
66274;Laerm;58450;52.150;4.466;2023-07-16T06:42:26;54.85;44.90;69.87;;
66274;Laerm;58450;52.150;4.466;2023-07-16T06:44:54;58.03;44.89;75.55;;
66274;Laerm;58450;52.150;4.466;2023-07-16T06:47:21;55.96;47.56;77.88;;
66274;Laerm;58450;52.150;4.466;2023-07-16T06:49:49;57.73;45.79;77.76;;
66274;Laerm;58450;52.150;4.466;2023-07-16T06:52:20;53.40;43.18;64.52;;
66274;Laerm;58450;52.150;4.466;2023-07-16T06:54:48;58.17;47.20;74.83;;
66274;Laerm;58450;52.150;4.466;2023-07-16T06:57:16;58.88;47.44;74.27;;
66274;Laerm;58450;52.150;4.466;2023-07-16T06:59:45;57.76;46.47;75.35;;
66274;Laerm;58450;52.150;4.466;2023-07-16T07:02:12;58.75;46.81;84.69;;
66274;Laerm;58450;52.150;4.466;2023-07-16T07:04:40;59.79;44.79;80.30;;
66274;Laerm;58450;52.150;4.466;2023-07-16T07:07:07;52.94;44.58;68.17;;
66274;Laerm;58450;52.150;4.466;2023-07-16T07:09:35;59.20;45.88;80.30;;
66274;Laerm;58450;52.150;4.466;2023-07-16T07:12:03;57.75;45.98;79.67;;
66274;Laerm;58450;52.150;4.466;2023-07-16T07:14:33;60.67;46.27;79.04;;
66274;Laerm;58450;52.150;4.466;2023-07-16T07:17:02;59.58;49.05;80.70;;
66274;Laerm;58450;52.150;4.466;2023-07-16T07:19:30;58.53;48.24;79.12;;
66274;Laerm;58450;52.150;4.466;2023-07-16T07:21:58;55.23;45.99;75.87;;
66274;Laerm;58450;52.150;4.466;2023-07-16T07:24:26;54.50;45.54;69.00;;
66274;Laerm;58450;52.150;4.466;2023-07-16T07:26:53;56.44;48.33;77.91;;
66274;Laerm;58450;52.150;4.466;2023-07-16T07:29:21;54.52;47.33;72.20;;
66274;Laerm;58450;52.150;4.466;2023-07-16T07:31:49;58.95;48.26;77.96;;
66274;Laerm;58450;52.150;4.466;2023-07-16T07:34:18;54.50;48.26;68.51;;
66274;Laerm;58450;52.150;4.466;2023-07-16T07:36:46;54.06;47.16;70.40;;
66274;Laerm;58450;52.150;4.466;2023-07-16T07:39:13;54.74;47.98;70.59;;
66274;Laerm;58450;52.150;4.466;2023-07-16T07:41:41;58.73;47.54;78.11;;
66274;Laerm;58450;52.150;4.466;2023-07-16T07:44:08;56.05;47.35;77.39;;
66274;Laerm;58450;52.150;4.466;2023-07-16T07:46:36;52.76;45.47;68.02;;
66274;Laerm;58450;52.150;4.466;2023-07-16T07:49:03;54.07;44.20;74.04;;
66274;Laerm;58450;52.150;4.466;2023-07-16T07:51:32;55.75;44.61;73.32;;
66274;Laerm;58450;52.150;4.466;2023-07-16T07:54:00;60.25;47.32;75.70;;
66274;Laerm;58450;52.150;4.466;2023-07-16T07:56:27;60.00;46.53;80.37;;
66274;Laerm;58450;52.150;4.466;2023-07-16T07:58:56;49.76;43.87;66.11;;
66274;Laerm;58450;52.150;4.466;2023-07-16T08:01:24;54.92;47.02;69.66;;
66274;Laerm;58450;52.150;4.466;2023-07-16T08:03:51;55.23;46.70;74.37;;
66274;Laerm;58450;52.150;4.466;2023-07-16T08:06:19;58.71;45.83;77.77;;
66274;Laerm;58450;52.150;4.466;2023-07-16T08:08:48;55.21;44.92;75.56;;
66274;Laerm;58450;52.150;4.466;2023-07-16T08:11:15;55.28;48.67;70.55;;
66274;Laerm;58450;52.150;4.466;2023-07-16T08:13:43;60.93;49.49;81.86;;
66274;Laerm;58450;52.150;4.466;2023-07-16T08:16:10;59.56;51.89;82.37;;
66274;Laerm;58450;52.150;4.466;2023-07-16T08:18:38;59.26;49.52;76.92;;
66274;Laerm;58450;52.150;4.466;2023-07-16T08:21:05;57.99;47.89;78.63;;
66274;Laerm;58450;52.150;4.466;2023-07-16T08:23:33;59.39;50.43;78.85;;
66274;Laerm;58450;52.150;4.466;2023-07-16T08:26:02;54.09;46.72;71.46;;
66274;Laerm;58450;52.150;4.466;2023-07-16T08:28:29;57.36;47.94;80.93;;
66274;Laerm;58450;52.150;4.466;2023-07-16T08:30:57;55.01;45.48;75.28;;
66274;Laerm;58450;52.150;4.466;2023-07-16T08:33:25;49.92;43.13;68.65;;
66274;Laerm;58450;52.150;4.466;2023-07-16T08:35:52;53.71;44.24;71.55;;
66274;Laerm;58450;52.150;4.466;2023-07-16T08:38:20;58.91;47.89;75.58;;
66274;Laerm;58450;52.150;4.466;2023-07-16T08:40:48;53.23;46.81;69.74;;
66274;Laerm;58450;52.150;4.466;2023-07-16T08:43:17;54.96;47.08;71.91;;
66274;Laerm;58450;52.150;4.466;2023-07-16T08:45:49;51.45;42.20;67.87;;
66274;Laerm;58450;52.150;4.466;2023-07-16T08:48:17;53.04;43.01;65.86;;
66274;Laerm;58450;52.150;4.466;2023-07-16T08:50:47;51.42;42.93;69.18;;
66274;Laerm;58450;52.150;4.466;2023-07-16T08:53:16;50.74;44.77;67.05;;
66274;Laerm;58450;52.150;4.466;2023-07-16T08:55:45;55.17;47.74;71.92;;
66274;Laerm;58450;52.150;4.466;2023-07-16T08:58:14;54.37;45.32;72.50;;
66274;Laerm;58450;52.150;4.466;2023-07-16T09:00:44;56.08;45.89;73.81;;
66274;Laerm;58450;52.150;4.466;2023-07-16T09:03:14;62.75;50.40;86.00;;
66274;Laerm;58450;52.150;4.466;2023-07-16T09:05:44;61.23;50.64;83.32;;
66274;Laerm;58450;52.150;4.466;2023-07-16T09:08:12;59.68;47.12;77.07;;
66274;Laerm;58450;52.150;4.466;2023-07-16T09:10:41;51.95;46.19;68.35;;
66274;Laerm;58450;52.150;4.466;2023-07-16T09:13:09;54.16;45.80;69.40;;
66274;Laerm;58450;52.150;4.466;2023-07-16T09:15:37;57.46;48.68;77.83;;
66274;Laerm;58450;52.150;4.466;2023-07-16T09:18:08;62.48;50.46;82.76;;
66274;Laerm;58450;52.150;4.466;2023-07-16T09:20:36;56.11;49.13;73.33;;
66274;Laerm;58450;52.150;4.466;2023-07-16T09:23:08;58.51;49.80;76.83;;
66274;Laerm;58450;52.150;4.466;2023-07-16T09:25:35;65.01;49.50;85.96;;
66274;Laerm;58450;52.150;4.466;2023-07-16T09:28:06;60.83;51.49;80.40;;
66274;Laerm;58450;52.150;4.466;2023-07-16T09:30:34;60.78;50.83;77.39;;
66274;Laerm;58450;52.150;4.466;2023-07-16T09:33:12;60.22;51.61;75.64;;
66274;Laerm;58450;52.150;4.466;2023-07-16T09:35:40;60.33;51.29;77.13;;
66274;Laerm;58450;52.150;4.466;2023-07-16T09:38:08;57.09;47.94;71.76;;
66274;Laerm;58450;52.150;4.466;2023-07-16T09:40:36;60.90;48.69;76.39;;
66274;Laerm;58450;52.150;4.466;2023-07-16T09:43:06;62.75;53.60;78.11;;
66274;Laerm;58450;52.150;4.466;2023-07-16T09:45:34;63.88;54.35;81.73;;
66274;Laerm;58450;52.150;4.466;2023-07-16T09:48:02;62.85;52.85;81.47;;
66274;Laerm;58450;52.150;4.466;2023-07-16T09:50:33;64.18;53.59;82.53;;
66274;Laerm;58450;52.150;4.466;2023-07-16T09:53:03;59.76;50.63;76.41;;
66274;Laerm;58450;52.150;4.466;2023-07-16T09:55:33;56.63;49.07;72.95;;
66274;Laerm;58450;52.150;4.466;2023-07-16T09:58:06;54.09;47.39;69.77;;
66274;Laerm;58450;52.150;4.466;2023-07-16T10:00:36;52.40;46.72;63.30;;
66274;Laerm;58450;52.150;4.466;2023-07-16T10:03:07;52.76;46.00;70.00;;
66274;Laerm;58450;52.150;4.466;2023-07-16T10:05:38;56.32;46.79;70.65;;
66274;Laerm;58450;52.150;4.466;2023-07-16T10:08:16;57.68;49.13;76.40;;
66274;Laerm;58450;52.150;4.466;2023-07-16T10:10:47;61.73;47.47;79.17;;
66274;Laerm;58450;52.150;4.466;2023-07-16T10:13:16;54.09;45.61;72.24;;
66274;Laerm;58450;52.150;4.466;2023-07-16T10:15:54;52.82;45.19;67.55;;
66274;Laerm;58450;52.150;4.466;2023-07-16T10:18:26;55.15;45.81;71.89;;
66274;Laerm;58450;52.150;4.466;2023-07-16T10:21:04;65.17;52.38;85.49;;
66274;Laerm;58450;52.150;4.466;2023-07-16T10:23:41;62.56;50.67;86.08;;
66274;Laerm;58450;52.150;4.466;2023-07-16T10:26:12;58.80;49.73;78.70;;
66274;Laerm;58450;52.150;4.466;2023-07-16T10:28:40;64.76;51.07;89.57;;
66274;Laerm;58450;52.150;4.466;2023-07-16T10:31:18;68.24;52.58;90.72;;
66274;Laerm;58450;52.150;4.466;2023-07-16T10:33:59;64.42;53.36;83.02;;
66274;Laerm;58450;52.150;4.466;2023-07-16T10:36:29;56.94;49.46;69.83;;
66274;Laerm;58450;52.150;4.466;2023-07-16T10:39:03;59.80;48.56;80.82;;
66274;Laerm;58450;52.150;4.466;2023-07-16T10:41:32;57.69;50.93;73.30;;
66274;Laerm;58450;52.150;4.466;2023-07-16T10:44:00;60.86;49.52;77.36;;
66274;Laerm;58450;52.150;4.466;2023-07-16T10:46:28;60.00;51.30;77.47;;
66274;Laerm;58450;52.150;4.466;2023-07-16T10:48:55;68.07;54.80;89.24;;
66274;Laerm;58450;52.150;4.466;2023-07-16T10:51:25;64.52;51.21;87.40;;
66274;Laerm;58450;52.150;4.466;2023-07-16T10:53:56;61.82;53.10;77.99;;
66274;Laerm;58450;52.150;4.466;2023-07-16T10:56:24;59.98;51.75;79.55;;
66274;Laerm;58450;52.150;4.466;2023-07-16T10:58:52;64.44;50.42;86.90;;
66274;Laerm;58450;52.150;4.466;2023-07-16T11:01:20;62.44;51.80;78.32;;
66274;Laerm;58450;52.150;4.466;2023-07-16T11:03:48;63.01;54.19;79.91;;
66274;Laerm;58450;52.150;4.466;2023-07-16T11:06:19;64.94;53.14;81.95;;
66274;Laerm;58450;52.150;4.466;2023-07-16T11:08:46;61.19;50.90;78.04;;
66274;Laerm;58450;52.150;4.466;2023-07-16T11:11:15;60.37;50.75;83.51;;
66274;Laerm;58450;52.150;4.466;2023-07-16T11:13:43;60.13;49.42;78.45;;
66274;Laerm;58450;52.150;4.466;2023-07-16T11:16:11;66.72;53.24;85.49;;
66274;Laerm;58450;52.150;4.466;2023-07-16T11:18:39;64.42;53.96;82.01;;
66274;Laerm;58450;52.150;4.466;2023-07-16T11:21:06;56.39;48.38;71.91;;
66274;Laerm;58450;52.150;4.466;2023-07-16T11:23:34;60.35;50.45;75.62;;
66274;Laerm;58450;52.150;4.466;2023-07-16T11:26:02;60.35;48.79;77.93;;
66274;Laerm;58450;52.150;4.466;2023-07-16T11:28:37;64.10;53.62;78.60;;
66274;Laerm;58450;52.150;4.466;2023-07-16T11:31:13;70.69;52.59;91.89;;
66274;Laerm;58450;52.150;4.466;2023-07-16T11:33:42;67.68;56.51;85.24;;
66274;Laerm;58450;52.150;4.466;2023-07-16T11:36:10;66.86;56.51;85.90;;
66274;Laerm;58450;52.150;4.466;2023-07-16T11:38:38;64.28;52.91;81.85;;
66274;Laerm;58450;52.150;4.466;2023-07-16T11:41:06;65.78;53.88;85.49;;
66274;Laerm;58450;52.150;4.466;2023-07-16T11:43:34;64.80;50.68;80.81;;
66274;Laerm;58450;52.150;4.466;2023-07-16T11:46:15;58.87;50.00;83.07;;
66274;Laerm;58450;52.150;4.466;2023-07-16T11:48:43;65.31;53.00;83.77;;
66274;Laerm;58450;52.150;4.466;2023-07-16T11:51:11;60.36;51.99;77.11;;
66274;Laerm;58450;52.150;4.466;2023-07-16T11:53:38;65.81;55.18;87.28;;
66274;Laerm;58450;52.150;4.466;2023-07-16T11:56:06;63.25;52.09;78.76;;
66274;Laerm;58450;52.150;4.466;2023-07-16T11:58:34;65.88;55.50;87.17;;
66274;Laerm;58450;52.150;4.466;2023-07-16T12:01:01;69.52;53.58;86.82;;
66274;Laerm;58450;52.150;4.466;2023-07-16T12:03:30;63.81;51.90;83.45;;
66274;Laerm;58450;52.150;4.466;2023-07-16T12:05:58;63.06;53.39;82.75;;
66274;Laerm;58450;52.150;4.466;2023-07-16T12:08:25;70.35;56.66;89.42;;
66274;Laerm;58450;52.150;4.466;2023-07-16T12:10:53;66.50;54.74;86.72;;
66274;Laerm;58450;52.150;4.466;2023-07-16T12:13:21;69.42;54.31;85.38;;
66274;Laerm;58450;52.150;4.466;2023-07-16T12:15:48;65.28;53.60;80.82;;
66274;Laerm;58450;52.150;4.466;2023-07-16T12:18:16;64.51;54.26;79.32;;
66274;Laerm;58450;52.150;4.466;2023-07-16T12:20:45;66.24;55.40;86.25;;
66274;Laerm;58450;52.150;4.466;2023-07-16T12:23:12;68.94;53.50;89.27;;
66274;Laerm;58450;52.150;4.466;2023-07-16T12:25:40;65.41;52.15;85.48;;
66274;Laerm;58450;52.150;4.466;2023-07-16T12:28:09;65.21;53.98;89.59;;
66274;Laerm;58450;52.150;4.466;2023-07-16T12:30:38;69.29;54.55;89.47;;
66274;Laerm;58450;52.150;4.466;2023-07-16T12:33:05;64.94;52.81;83.78;;
66274;Laerm;58450;52.150;4.466;2023-07-16T12:35:33;69.34;59.30;89.24;;
66274;Laerm;58450;52.150;4.466;2023-07-16T12:38:02;64.89;55.98;82.73;;
66274;Laerm;58450;52.150;4.466;2023-07-16T12:40:30;61.37;53.65;76.73;;
66274;Laerm;58450;52.150;4.466;2023-07-16T12:42:57;61.48;51.70;80.80;;
66274;Laerm;58450;52.150;4.466;2023-07-16T12:45:25;60.65;51.17;76.02;;
66274;Laerm;58450;52.150;4.466;2023-07-16T12:47:52;59.01;50.99;70.03;;
66274;Laerm;58450;52.150;4.466;2023-07-16T12:50:20;66.59;54.73;84.91;;
66274;Laerm;58450;52.150;4.466;2023-07-16T12:52:47;62.75;51.38;85.29;;
66274;Laerm;58450;52.150;4.466;2023-07-16T12:55:16;57.84;47.48;69.65;;
66274;Laerm;58450;52.150;4.466;2023-07-16T12:57:45;56.91;49.23;73.86;;
66274;Laerm;58450;52.150;4.466;2023-07-16T13:00:13;57.41;48.19;73.46;;
66274;Laerm;58450;52.150;4.466;2023-07-16T13:02:40;65.89;53.71;81.31;;
66274;Laerm;58450;52.150;4.466;2023-07-16T13:05:08;65.12;52.57;85.15;;
66274;Laerm;58450;52.150;4.466;2023-07-16T13:07:35;63.56;51.62;81.04;;
66274;Laerm;58450;52.150;4.466;2023-07-16T13:10:04;62.91;54.70;80.66;;
66274;Laerm;58450;52.150;4.466;2023-07-16T13:12:33;60.38;51.58;78.36;;
66274;Laerm;58450;52.150;4.466;2023-07-16T13:15:01;58.91;49.24;78.06;;
66274;Laerm;58450;52.150;4.466;2023-07-16T13:17:29;65.07;53.93;82.39;;
66274;Laerm;58450;52.150;4.466;2023-07-16T13:19:56;64.30;51.25;84.07;;
66274;Laerm;58450;52.150;4.466;2023-07-16T13:22:24;58.20;48.65;74.21;;
66274;Laerm;58450;52.150;4.466;2023-07-16T13:24:51;58.81;49.66;75.56;;
66274;Laerm;58450;52.150;4.466;2023-07-16T13:27:23;51.47;44.32;66.78;;
66274;Laerm;58450;52.150;4.466;2023-07-16T13:29:52;57.91;47.30;76.06;;
66274;Laerm;58450;52.150;4.466;2023-07-16T13:32:20;60.66;50.02;79.01;;
66274;Laerm;58450;52.150;4.466;2023-07-16T13:34:47;56.19;47.82;72.24;;
66274;Laerm;58450;52.150;4.466;2023-07-16T13:37:15;62.60;46.80;83.05;;
66274;Laerm;58450;52.150;4.466;2023-07-16T13:39:42;60.28;47.94;82.05;;
66274;Laerm;58450;52.150;4.466;2023-07-16T13:42:10;60.62;49.98;82.00;;
66274;Laerm;58450;52.150;4.466;2023-07-16T13:44:38;62.83;50.80;81.22;;
66274;Laerm;58450;52.150;4.466;2023-07-16T13:47:07;56.61;46.34;74.90;;
66274;Laerm;58450;52.150;4.466;2023-07-16T13:49:35;58.93;44.87;73.81;;
66274;Laerm;58450;52.150;4.466;2023-07-16T13:52:03;57.84;49.21;74.20;;
66274;Laerm;58450;52.150;4.466;2023-07-16T13:54:31;54.28;45.91;68.19;;